Time;durP1;ratioP1;P1;durP2;ratioP2;P2;SDS_P1;SDS_P2;PMS_P1;PMS_P2;Temp;Humidity;BMP_temperature;BMP_pressure;BME280_temperature;BME280_humidity;BME280_pressure;Samples;Min_cycle;Max_cycle;Signal;HPM_P1;HPM_P2
2022/03/09 00:00:05;;;;;;;27.98;17.70;;;;;;;-0.95;67.05;96430.47;5117367;27;20484;-65
2022/03/09 00:02:31;;;;;;;24.13;16.95;;;;;;;-0.99;66.46;96421.03;5117236;28;20038;-65
2022/03/09 00:04:57;;;;;;;30.60;18.58;;;;;;;-1.02;66.43;96424.47;5117276;28;20015;-65
2022/03/09 00:07:22;;;;;;;27.67;18.35;;;;;;;-1.08;66.04;96425.25;5117365;28;20030;-64
2022/03/09 00:09:48;;;;;;;26.48;18.40;;;;;;;-1.09;66.42;96431.25;5117490;28;20383;-64
2022/03/09 00:12:13;;;;;;;28.02;18.92;;;;;;;-1.05;67.06;96419.31;5117219;28;20048;-65
2022/03/09 00:14:39;;;;;;;28.40;18.52;;;;;;;-0.99;67.22;96421.03;5117208;28;20016;-65
2022/03/09 00:17:04;;;;;;;28.02;18.83;;;;;;;-0.97;67.73;96421.91;5117150;28;20441;-66
2022/03/09 00:19:30;;;;;;;46.92;27.88;;;;;;;-1.01;67.76;96423.59;5116893;28;20373;-65
2022/03/09 00:21:55;;;;;;;39.53;23.13;;;;;;;-1.07;67.90;96416.72;5116958;28;20389;-65
2022/03/09 00:24:21;;;;;;;30.88;19.65;;;;;;;-1.05;68.01;96417.56;5116913;28;20327;-64
2022/03/09 00:26:47;;;;;;;28.33;18.23;;;;;;;-1.08;68.03;96417.56;5116904;28;20027;-66
2022/03/09 00:29:12;;;;;;;29.30;19.38;;;;;;;-1.05;68.11;96414.16;5116952;28;20104;-66
2022/03/09 00:31:38;;;;;;;29.02;18.08;;;;;;;-1.13;67.66;96397.84;5116982;28;20444;-65
2022/03/09 00:34:03;;;;;;;32.63;19.23;;;;;;;-1.12;66.87;96402.97;5115505;28;20381;-65
2022/03/09 00:36:29;;;;;;;27.75;17.38;;;;;;;-1.12;67.26;96397.84;5116770;28;20027;-65
2022/03/09 00:38:56;;;;;;;28.17;19.58;;;;;;;-1.18;67.39;96393.53;5116631;28;20094;-66
2022/03/09 00:41:22;;;;;;;26.00;18.60;;;;;;;-1.19;65.80;96389.25;5116576;28;20061;-67
2022/03/09 00:43:47;;;;;;;26.70;18.17;;;;;;;-1.11;66.65;96398.72;5116608;28;20078;-64
2022/03/09 00:46:13;;;;;;;29.20;18.60;;;;;;;-1.09;67.34;96387.59;5116555;28;20032;-64
2022/03/09 00:48:39;;;;;;;29.42;18.42;;;;;;;-1.14;67.60;96386.72;5116476;28;20357;-66
2022/03/09 00:51:06;;;;;;;25.70;18.15;;;;;;;-1.11;67.82;96391.88;5116417;27;20501;-66
2022/03/09 00:53:31;;;;;;;26.98;18.42;;;;;;;-1.11;67.49;96385.88;5116409;28;20011;-65
2022/03/09 00:55:57;;;;;;;28.38;18.17;;;;;;;-1.26;66.57;96397.78;5116356;28;20119;-65
2022/03/09 00:58:23;;;;;;;28.90;20.23;;;;;;;-1.32;66.53;96388.31;5116222;28;20032;-66
2022/03/09 01:00:49;;;;;;;29.42;18.42;;;;;;;-1.35;65.90;96387.44;5116054;28;20016;-65
2022/03/09 01:03:15;;;;;;;29.92;18.40;;;;;;;-1.38;65.38;96377.16;5116231;28;20076;-65
2022/03/09 01:05:41;;;;;;;29.83;19.08;;;;;;;-1.36;65.66;96385.72;5115307;28;20049;-66
2022/03/09 01:08:07;;;;;;;33.33;22.90;;;;;;;-1.42;66.05;96387.41;5116131;28;20024;-66
2022/03/09 01:10:33;;;;;;;29.10;20.00;;;;;;;-1.33;66.30;96386.59;5116167;28;20027;-64
2022/03/09 01:12:59;;;;;;;34.25;20.95;;;;;;;-1.38;67.91;96375.47;5115971;28;20016;-65
2022/03/09 01:15:24;;;;;;;32.47;20.85;;;;;;;-1.43;67.17;96385.69;5115878;28;20466;-67
2022/03/09 01:17:50;;;;;;;31.10;20.35;;;;;;;-1.36;67.10;96386.56;5115925;28;20106;-66
2022/03/09 01:20:15;;;;;;;35.25;22.40;;;;;;;-1.40;67.65;96380.56;5115715;28;20042;-65
2022/03/09 01:22:41;;;;;;;34.28;20.23;;;;;;;-1.30;67.94;96381.47;5115821;28;20544;-66
2022/03/09 01:25:08;;;;;;;32.28;20.75;;;;;;;-1.26;68.09;96379.81;5115616;28;20044;-66
2022/03/09 01:27:34;;;;;;;31.17;20.40;;;;;;;-1.24;68.23;96385.78;5115687;28;20020;-65
2022/03/09 01:30:00;;;;;;;32.78;21.70;;;;;;;-1.19;68.86;96375.56;5115748;27;20089;-65
2022/03/09 01:32:26;;;;;;;32.58;21.33;;;;;;;-1.13;68.75;96380.72;5115702;27;20038;-67
2022/03/09 01:34:51;;;;;;;34.53;21.35;;;;;;;-1.15;68.45;96373.00;5115611;28;20104;-64
2022/03/09 01:37:17;;;;;;;31.17;20.48;;;;;;;-1.17;68.50;96384.13;5115652;28;20024;-65
2022/03/09 01:39:42;;;;;;;30.67;19.33;;;;;;;-1.18;67.80;96380.69;5115431;28;20107;-66
2022/03/09 01:42:08;;;;;;;29.10;20.10;;;;;;;-1.14;67.51;96379.03;5115291;28;20507;-65
2022/03/09 01:44:34;;;;;;;29.63;20.60;;;;;;;-1.14;67.53;96373.88;5115455;28;20022;-65
2022/03/09 01:46:59;;;;;;;29.30;19.67;;;;;;;-1.27;66.47;96370.38;5115422;28;20031;-65
2022/03/09 01:49:26;;;;;;;29.90;19.73;;;;;;;-1.28;66.82;96376.34;5115234;28;20027;-66
2022/03/09 01:51:55;;;;;;;33.97;22.40;;;;;;;-1.32;66.35;96375.47;5115181;28;20016;-65
2022/03/09 01:54:21;;;;;;;31.50;21.70;;;;;;;-1.30;66.73;96378.91;5115364;28;20530;-65
2022/03/09 01:56:47;;;;;;;32.50;21.50;;;;;;;-1.28;66.64;96379.78;5115305;28;20024;-65
2022/03/09 01:59:14;;;;;;;33.30;21.27;;;;;;;-1.28;66.86;96379.78;5115144;28;20068;-66
2022/03/09 02:01:40;;;;;;;31.15;21.40;;;;;;;-1.27;66.77;96385.78;5115037;28;20020;-65
2022/03/09 02:04:07;;;;;;;32.70;20.00;;;;;;;-1.33;66.53;96384.03;5115039;28;20042;-66
2022/03/09 02:06:35;;;;;;;30.30;19.50;;;;;;;-1.40;66.72;96385.72;5115010;28;20028;-66
2022/03/09 02:11:47;;;;;;;32.17;20.05;;;;;;;-1.43;67.42;96385.69;5115212;28;20039;-65
2022/03/09 02:14:33;;;;;;;34.72;21.13;;;;;;;-1.43;67.22;96384.81;5114779;28;20027;-66
2022/03/09 02:17:02;;;;;;;32.78;21.33;;;;;;;-1.39;68.03;96381.41;5114819;28;20024;-66
2022/03/09 02:19:28;;;;;;;34.35;21.35;;;;;;;-1.38;67.06;96377.16;5114748;27;20016;-64
2022/03/09 02:22:12;;;;;;;30.85;19.38;;;;;;;-1.42;66.72;96386.53;5114475;28;20374;-64
2022/03/09 02:24:37;;;;;;;33.33;21.60;;;;;;;-1.46;67.10;96380.53;5114600;28;20156;-64
2022/03/09 02:27:03;;;;;;;30.42;19.67;;;;;;;-1.48;67.27;96371.94;5114477;28;20094;-66
2022/03/09 02:29:29;;;;;;;34.08;21.13;;;;;;;-1.43;67.26;96362.59;5114482;28;20023;-64
2022/03/09 02:31:54;;;;;;;31.58;20.33;;;;;;;-1.34;67.26;96366.91;5114451;28;20027;-65
2022/03/09 02:34:20;;;;;;;33.22;21.73;;;;;;;-1.35;68.07;96365.22;5114620;28;20030;-67
2022/03/09 02:36:46;;;;;;;34.28;21.73;;;;;;;-1.33;67.80;96365.22;5114308;28;20020;-67
2022/03/09 02:39:11;;;;;;;31.83;20.83;;;;;;;-1.31;65.55;96363.50;5114304;28;20098;-65
2022/03/09 02:41:37;;;;;;;28.02;18.83;;;;;;;-1.28;65.71;96361.81;5114074;27;20384;-67
2022/03/09 02:44:03;;;;;;;26.45;18.13;;;;;;;-1.29;66.22;96367.78;5114247;28;20042;-66
2022/03/09 02:46:29;;;;;;;29.30;19.27;;;;;;;-1.24;66.20;96359.28;5114224;28;20027;-66
2022/03/09 02:48:55;;;;;;;28.17;18.48;;;;;;;-1.24;65.04;96361.84;5114213;28;20365;-65
2022/03/09 02:51:21;;;;;;;27.25;17.45;;;;;;;-1.20;64.23;96366.16;5114081;28;20016;-66
2022/03/09 02:53:48;;;;;;;28.45;18.23;;;;;;;-1.32;65.21;96365.19;5114076;28;20024;-66
2022/03/09 02:56:15;;;;;;;27.77;17.95;;;;;;;-1.41;65.58;96367.72;5114148;28;20426;-65
2022/03/09 02:58:41;;;;;;;25.83;17.73;;;;;;;-1.46;65.49;96371.97;5114059;28;20016;-65
2022/03/09 03:01:07;;;;;;;28.50;18.63;;;;;;;-1.54;65.60;96371.91;5113809;28;20020;-66
2022/03/09 03:03:33;;;;;;;31.42;19.38;;;;;;;-1.58;66.17;96376.16;5113893;28;20019;-67
2022/03/09 03:05:59;;;;;;;27.85;18.65;;;;;;;-1.69;66.41;96377.78;5113936;28;20111;-66
2022/03/09 03:08:24;;;;;;;27.83;18.70;;;;;;;-1.71;66.88;96376.91;5113977;28;20027;-66
2022/03/09 03:10:50;;;;;;;32.17;18.95;;;;;;;-1.76;67.15;96371.75;5113819;28;20028;-64
2022/03/09 03:13:15;;;;;;;31.85;19.00;;;;;;;-1.72;67.90;96375.22;5113765;28;20026;-67
2022/03/09 03:15:41;;;;;;;33.90;19.83;;;;;;;-1.75;67.91;96370.88;5113713;28;20064;-65
2022/03/09 03:18:06;;;;;;;30.75;20.13;;;;;;;-1.71;68.35;96369.22;5113702;28;20083;-64
2022/03/09 03:20:32;;;;;;;28.30;19.00;;;;;;;-1.68;68.19;96371.81;5113424;28;20051;-66
2022/03/09 03:22:57;;;;;;;31.05;19.10;;;;;;;-1.75;68.08;96373.47;5113514;28;20101;-65
2022/03/09 03:25:23;;;;;;;33.92;21.83;;;;;;;-1.79;68.38;96370.03;5113510;28;20153;-66
2022/03/09 03:27:48;;;;;;;37.72;23.50;;;;;;;-1.85;68.43;96375.09;5113229;28;20052;-66
2022/03/09 03:30:14;;;;;;;32.33;20.67;;;;;;;-1.83;68.65;96367.41;5113688;28;20027;-65
2022/03/09 03:32:39;;;;;;;33.17;20.92;;;;;;;-1.78;69.25;96368.31;5113549;28;20498;-65
2022/03/09 03:35:05;;;;;;;36.10;22.38;;;;;;;-1.74;68.69;96374.31;5113515;28;20377;-67
2022/03/09 03:37:31;;;;;;;39.45;22.23;;;;;;;-1.73;68.60;96369.22;5113562;28;20158;-64
2022/03/09 03:39:57;;;;;;;33.38;21.60;;;;;;;-1.70;68.22;96368.38;5113424;28;20073;-65
2022/03/09 03:42:22;;;;;;;38.95;21.63;;;;;;;-1.75;68.39;96365.75;5113528;28;20043;-64
2022/03/09 03:44:48;;;;;;;34.75;22.15;;;;;;;-1.75;68.64;96365.75;5113408;28;20023;-65
2022/03/09 03:47:14;;;;;;;31.10;21.25;;;;;;;-1.74;68.70;96367.50;5113386;28;20020;-65
2022/03/09 03:49:39;;;;;;;33.33;20.65;;;;;;;-1.69;69.04;96363.25;5113287;28;20046;-64
2022/03/09 03:52:05;;;;;;;30.73;19.58;;;;;;;-1.63;68.26;96366.72;5113387;28;20020;-65
2022/03/09 03:54:31;;;;;;;31.27;21.10;;;;;;;-1.60;68.07;96366.75;5113441;28;20446;-65
2022/03/09 03:56:56;;;;;;;29.98;20.58;;;;;;;-1.59;69.17;96364.19;5113391;28;20024;-67
2022/03/09 03:59:22;;;;;;;50.80;32.03;;;;;;;-1.59;69.14;96366.75;5113269;28;20013;-67
2022/03/09 04:01:47;;;;;;;38.35;24.27;;;;;;;-1.63;68.52;96364.16;5113369;28;20020;-64
2022/03/09 04:04:13;;;;;;;30.85;21.42;;;;;;;-1.59;68.75;96361.63;5113307;28;20087;-66
2022/03/09 04:06:38;;;;;;;32.85;21.33;;;;;;;-1.60;68.40;96366.75;5113124;28;20024;-66
2022/03/09 04:09:04;;;;;;;31.85;20.30;;;;;;;-1.64;68.76;96365.84;5113259;28;20440;-66
2022/03/09 04:11:30;;;;;;;34.40;23.00;;;;;;;-1.74;68.66;96364.06;5113172;28;20028;-66
2022/03/09 04:13:55;;;;;;;30.55;20.20;;;;;;;-1.82;68.78;96358.88;5113215;28;20020;-66
2022/03/09 04:16:21;;;;;;;31.23;19.90;;;;;;;-1.85;69.02;96354.59;5113119;28;20043;-65
2022/03/09 04:18:46;;;;;;;33.40;20.58;;;;;;;-1.83;68.42;96368.28;5113131;28;20473;-67
2022/03/09 04:21:12;;;;;;;36.70;23.90;;;;;;;-1.83;68.83;96362.28;5112747;28;20481;-66
2022/03/09 04:23:37;;;;;;;32.33;19.77;;;;;;;-1.81;68.78;96370.84;5113094;28;20043;-68
2022/03/09 04:26:06;;;;;;;30.83;19.70;;;;;;;-1.88;68.92;96369.06;5113133;28;20043;-64
2022/03/09 04:28:32;;;;;;;32.72;20.45;;;;;;;-1.91;68.32;96362.22;5113018;28;20024;-66
2022/03/09 04:30:58;;;;;;;32.17;19.52;;;;;;;-1.87;68.04;96358.81;5113053;28;20521;-64
2022/03/09 04:33:24;;;;;;;31.17;19.17;;;;;;;-1.79;68.84;96364.03;5112879;28;20350;-64
2022/03/09 04:35:49;;;;;;;30.23;18.15;;;;;;;-1.80;69.02;96363.16;5112902;28;20031;-64
2022/03/09 04:38:15;;;;;;;35.45;23.27;;;;;;;-1.78;69.20;96365.72;5112860;28;20023;-66
2022/03/09 04:40:41;;;;;;;52.42;34.30;;;;;;;-1.73;69.26;96370.91;5114241;28;20016;-67
2022/03/09 04:43:07;;;;;;;31.27;20.95;;;;;;;-1.80;69.61;96367.44;5116810;28;20027;-67
2022/03/09 04:45:33;;;;;;;29.42;20.73;;;;;;;-1.75;69.98;96370.06;5116534;27;20462;-66
2022/03/09 04:47:59;;;;;;;33.28;22.77;;;;;;;-1.79;69.61;96370.03;5116476;28;20047;-66
2022/03/09 04:50:24;;;;;;;29.42;19.30;;;;;;;-1.77;70.09;96370.03;5116529;28;20047;-65
2022/03/09 04:52:50;;;;;;;26.77;17.05;;;;;;;-1.83;69.83;96360.59;5116492;28;20098;-66
2022/03/09 04:55:16;;;;;;;29.50;18.52;;;;;;;-1.85;69.74;96371.66;5116456;28;20019;-67
2022/03/09 04:57:42;;;;;;;29.98;20.33;;;;;;;-1.86;69.63;96370.81;5116344;28;20550;-66
2022/03/09 05:00:08;;;;;;;31.15;18.67;;;;;;;-1.87;69.13;96363.13;5116325;28;20439;-65
2022/03/09 05:02:34;;;;;;;28.55;17.73;;;;;;;-1.93;68.51;96363.91;5116145;28;20058;-67
2022/03/09 05:05:00;;;;;;;26.52;17.35;;;;;;;-1.94;69.23;96368.19;5116277;28;20020;-67
2022/03/09 05:07:25;;;;;;;31.30;19.88;;;;;;;-1.90;68.79;96369.06;5116340;28;20570;-67
2022/03/09 05:09:51;;;;;;;29.77;18.98;;;;;;;-1.84;68.56;96371.69;5116097;28;20028;-67
2022/03/09 05:12:17;;;;;;;31.25;19.70;;;;;;;-1.84;68.57;96370.84;5116101;28;20057;-65
2022/03/09 05:14:42;;;;;;;33.65;18.88;;;;;;;-1.80;69.15;96372.56;5115996;28;20111;-65
2022/03/09 05:17:09;;;;;;;28.35;18.77;;;;;;;-1.78;68.62;96376.88;5116097;28;20024;-67
2022/03/09 05:19:34;;;;;;;30.95;18.83;;;;;;;-1.72;69.11;96382.91;5115717;28;20042;-66
2022/03/09 05:22:00;;;;;;;27.08;18.65;;;;;;;-1.63;68.99;96388.09;5115834;28;20469;-68
2022/03/09 05:24:26;;;;;;;29.83;19.02;;;;;;;-1.53;68.73;96397.56;5115912;28;20020;-66
2022/03/09 05:26:51;;;;;;;30.55;18.35;;;;;;;-1.52;68.16;96388.19;5115842;28;20538;-67
2022/03/09 05:29:17;;;;;;;26.38;18.40;;;;;;;-1.43;68.39;96390.81;5115796;28;20039;-68
2022/03/09 05:31:44;;;;;;;33.63;18.70;;;;;;;-1.18;67.59;96392.66;5115711;28;20023;-67
2022/03/09 05:34:10;;;;;;;27.05;17.02;;;;;;;-0.81;66.78;96392.03;5115756;28;20055;-68
2022/03/09 05:36:36;;;;;;;26.50;17.48;;;;;;;-0.07;62.75;96395.66;5115617;28;20020;-65
2022/03/09 05:39:03;;;;;;;25.67;17.30;;;;;;;0.58;61.99;96400.00;5115684;28;20550;-67
2022/03/09 05:41:29;;;;;;;22.80;16.73;;;;;;;0.87;60.13;96399.97;5115469;28;20493;-67
2022/03/09 05:43:55;;;;;;;24.65;17.58;;;;;;;0.97;57.74;96405.13;5115472;28;20028;-67
2022/03/09 05:46:21;;;;;;;23.42;16.65;;;;;;;1.58;56.46;96402.34;5115397;28;20023;-68
2022/03/09 05:48:46;;;;;;;24.50;17.38;;;;;;;1.85;55.41;96408.22;5115268;28;20114;-65
2022/03/09 05:51:12;;;;;;;23.70;16.73;;;;;;;1.77;55.25;96416.00;5115117;28;20015;-68
2022/03/09 05:53:39;;;;;;;25.83;18.40;;;;;;;1.62;55.36;96416.91;5115418;27;20016;-64
2022/03/09 05:56:06;;;;;;;27.35;17.35;;;;;;;1.49;55.70;96419.56;5115206;28;20027;-67
2022/03/09 05:58:31;;;;;;;27.45;18.33;;;;;;;1.38;55.32;96414.44;5115073;28;20034;-66
2022/03/09 06:00:57;;;;;;;24.45;17.27;;;;;;;1.28;56.20;96417.91;5114999;28;20015;-65
2022/03/09 06:03:23;;;;;;;21.23;16.83;;;;;;;1.20;55.79;96423.09;5115021;28;20023;-67
2022/03/09 06:05:48;;;;;;;23.38;17.42;;;;;;;1.07;56.16;96414.53;5115055;28;20027;-65
2022/03/09 06:08:14;;;;;;;27.60;17.35;;;;;;;0.81;56.04;96417.16;5115081;28;20024;-65
2022/03/09 06:10:39;;;;;;;23.23;17.17;;;;;;;0.75;56.63;96421.44;5115044;28;20027;-67
2022/03/09 06:13:05;;;;;;;24.45;17.13;;;;;;;0.78;57.50;96417.16;5114941;28;20035;-66
2022/03/09 06:15:30;;;;;;;25.00;17.70;;;;;;;0.82;56.31;96416.31;5114841;28;20027;-67
2022/03/09 06:17:56;;;;;;;26.70;17.30;;;;;;;0.88;56.69;96416.28;5114796;28;20399;-65
2022/03/09 06:20:27;;;;;;;26.77;18.15;;;;;;;0.95;56.40;96417.13;5114533;28;20047;-65
2022/03/09 06:22:54;;;;;;;26.52;17.95;;;;;;;0.93;55.59;96419.72;5114619;28;20114;-65
2022/03/09 06:25:20;;;;;;;23.88;16.58;;;;;;;0.81;56.25;96412.84;5114638;27;20043;-67
2022/03/09 06:27:52;;;;;;;25.75;18.00;;;;;;;0.95;56.90;96419.69;5114681;28;20078;-64
2022/03/09 06:30:18;;;;;;;25.77;17.73;;;;;;;1.11;55.98;96431.69;5114786;28;20426;-65
2022/03/09 06:32:46;;;;;;;25.40;16.38;;;;;;;1.18;55.38;96426.53;5114610;28;20088;-65
2022/03/09 06:35:13;;;;;;;25.58;17.75;;;;;;;1.26;54.72;96425.66;5114471;28;20461;-68
2022/03/09 06:37:39;;;;;;;26.63;17.52;;;;;;;1.33;55.20;96425.63;5114370;28;20027;-64
2022/03/09 06:40:05;;;;;;;24.23;17.10;;;;;;;1.56;54.45;96427.28;5114379;28;20083;-65
2022/03/09 06:42:31;;;;;;;23.15;15.95;;;;;;;1.80;52.88;96433.19;5114400;28;20020;-64
2022/03/09 06:44:57;;;;;;;22.75;16.10;;;;;;;1.84;53.06;96433.16;5114251;28;20030;-66
2022/03/09 06:47:23;;;;;;;22.73;16.60;;;;;;;2.23;52.95;96438.09;5114078;28;20037;-65
2022/03/09 06:49:49;;;;;;;24.30;17.55;;;;;;;2.83;51.42;96433.34;5114304;28;20028;-64
2022/03/09 06:52:15;;;;;;;20.42;15.38;;;;;;;3.73;49.94;96428.09;5114234;28;20024;-66
2022/03/09 06:54:41;;;;;;;22.40;16.75;;;;;;;4.10;47.87;96434.53;5114129;28;20019;-68
2022/03/09 06:57:07;;;;;;;24.42;16.80;;;;;;;4.25;47.09;96425.69;5114045;28;20476;-64
2022/03/09 06:59:32;;;;;;;19.92;15.52;;;;;;;4.32;46.99;96434.19;5113922;28;20120;-65
2022/03/09 07:01:58;;;;;;;22.55;16.73;;;;;;;4.51;46.26;96433.03;5113884;28;20069;-65
2022/03/09 07:04:23;;;;;;;23.98;16.13;;;;;;;4.72;46.37;96428.41;5113380;28;20053;-65
2022/03/09 07:06:49;;;;;;;24.55;16.92;;;;;;;4.50;45.26;96428.75;5113978;28;20077;-67
2022/03/09 07:09:15;;;;;;;22.90;16.17;;;;;;;4.50;46.07;96433.94;5113921;28;20465;-65
2022/03/09 07:11:41;;;;;;;24.75;14.82;;;;;;;4.36;46.52;96433.28;5113868;28;20032;-65
2022/03/09 07:14:07;;;;;;;19.67;15.60;;;;;;;4.23;45.46;96432.59;5113737;28;20022;-64
2022/03/09 07:16:33;;;;;;;20.92;15.40;;;;;;;3.88;46.93;96434.78;5113806;28;20027;-66
2022/03/09 07:18:59;;;;;;;19.65;15.07;;;;;;;4.21;46.71;96444.72;5113654;28;20081;-64
2022/03/09 07:21:25;;;;;;;20.77;14.70;;;;;;;4.36;46.99;96439.31;5113399;28;20051;-67
2022/03/09 07:23:52;;;;;;;18.45;12.90;;;;;;;4.61;44.69;96440.69;5113751;28;20043;-64
2022/03/09 07:26:17;;;;;;;19.95;14.75;;;;;;;4.75;44.07;96438.72;5113587;28;20066;-63
2022/03/09 07:28:43;;;;;;;17.77;13.98;;;;;;;4.99;44.21;96441.78;5113634;28;20030;-67
2022/03/09 07:31:08;;;;;;;20.38;15.50;;;;;;;5.22;42.65;96440.53;5113664;28;20393;-66
2022/03/09 07:33:34;;;;;;;23.40;14.02;;;;;;;5.20;43.56;96439.69;5113523;28;20123;-65
2022/03/09 07:36:01;;;;;;;17.38;13.77;;;;;;;5.40;43.29;96431.53;5113634;28;20024;-65
2022/03/09 07:38:27;;;;;;;21.15;14.77;;;;;;;5.78;42.32;96438.59;5113444;28;20034;-64
2022/03/09 07:40:52;;;;;;;19.48;13.68;;;;;;;6.02;42.27;96441.56;5113469;28;20102;-65
2022/03/09 07:43:18;;;;;;;17.80;13.25;;;;;;;6.14;41.62;96437.88;5113407;28;20465;-64
2022/03/09 07:45:45;;;;;;;17.30;14.00;;;;;;;6.23;40.85;96436.81;5113462;28;20016;-68
2022/03/09 07:48:10;;;;;;;17.92;13.05;;;;;;;5.89;40.73;96443.56;5113350;28;20020;-64
2022/03/09 07:50:36;;;;;;;19.83;13.57;;;;;;;5.49;41.69;96438.28;5113580;28;20368;-67
2022/03/09 07:53:03;;;;;;;17.77;13.38;;;;;;;5.58;43.21;96429.47;5113299;28;20034;-64
2022/03/09 07:55:29;;;;;;;16.55;13.00;;;;;;;5.81;40.85;96429.00;5113368;28;20022;-65
2022/03/09 07:57:55;;;;;;;18.30;12.90;;;;;;;5.76;40.29;96429.97;5113197;28;20373;-65
2022/03/09 08:00:20;;;;;;;18.25;14.23;;;;;;;5.82;43.40;96429.84;5113388;28;20450;-65
2022/03/09 08:02:46;;;;;;;20.55;14.32;;;;;;;5.63;41.11;96425.03;5113272;28;20527;-66
2022/03/09 08:05:12;;;;;;;21.40;15.60;;;;;;;5.54;41.31;96422.63;5113110;28;20538;-64
2022/03/09 08:07:38;;;;;;;17.73;14.15;;;;;;;5.27;42.67;96428.31;5113230;28;20020;-68
2022/03/09 08:10:04;;;;;;;17.75;13.40;;;;;;;5.12;42.94;96429.44;5113215;28;20480;-67
2022/03/09 08:12:30;;;;;;;18.20;13.52;;;;;;;5.14;42.79;96426.81;5113170;28;20027;-68
2022/03/09 08:14:56;;;;;;;18.15;13.25;;;;;;;5.41;42.90;96425.47;5115234;28;20032;-64
2022/03/09 08:17:22;;;;;;;16.63;12.73;;;;;;;5.91;43.07;96427.06;5116990;28;20028;-66
2022/03/09 08:19:48;;;;;;;16.05;12.15;;;;;;;6.07;41.03;96430.22;5116950;28;20541;-66
2022/03/09 08:22:13;;;;;;;18.80;12.98;;;;;;;6.03;40.15;96427.69;5116990;28;20051;-65
2022/03/09 08:24:39;;;;;;;18.08;12.57;;;;;;;5.92;39.92;96427.91;5116950;28;20024;-64
2022/03/09 08:27:05;;;;;;;17.35;12.80;;;;;;;6.04;40.56;96425.09;5117022;28;20016;-64
2022/03/09 08:29:30;;;;;;;14.88;11.98;;;;;;;6.23;41.48;96426.44;5116934;28;20024;-67
2022/03/09 08:31:56;;;;;;;15.48;12.75;;;;;;;6.53;40.84;96421.44;5116831;28;20031;-64
2022/03/09 08:34:22;;;;;;;15.70;11.40;;;;;;;6.53;40.20;96422.25;5116837;28;20032;-68
2022/03/09 08:36:47;;;;;;;15.93;12.73;;;;;;;6.40;39.89;96423.44;5116757;28;20109;-66
2022/03/09 08:39:13;;;;;;;16.33;11.93;;;;;;;6.32;39.65;96416.69;5116740;28;20023;-67
2022/03/09 08:41:39;;;;;;;16.13;12.25;;;;;;;5.99;39.94;96419.09;5116650;27;20065;-66
2022/03/09 08:44:04;;;;;;;19.02;12.55;;;;;;;6.05;41.43;96413.81;5116549;28;20388;-65
2022/03/09 08:46:30;;;;;;;17.20;13.15;;;;;;;5.78;41.29;96413.47;5116667;28;20020;-65
2022/03/09 08:48:56;;;;;;;14.95;11.52;;;;;;;5.82;40.04;96415.13;5116457;28;20016;-65
2022/03/09 08:51:22;;;;;;;15.98;11.80;;;;;;;5.36;41.24;96410.88;5116490;28;20028;-65
2022/03/09 08:53:48;;;;;;;14.95;12.48;;;;;;;5.11;42.91;96404.41;5116373;28;20042;-65
2022/03/09 08:56:14;;;;;;;19.55;12.45;;;;;;;5.14;43.95;96409.53;5116395;28;20077;-66
2022/03/09 08:58:40;;;;;;;15.20;11.60;;;;;;;4.82;42.47;96418.75;5116256;28;20355;-66
2022/03/09 09:01:05;;;;;;;15.20;11.18;;;;;;;4.49;42.61;96416.66;5116337;28;20023;-65
2022/03/09 09:03:31;;;;;;;17.15;11.55;;;;;;;4.35;43.76;96410.84;5116314;28;20047;-68
2022/03/09 09:05:57;;;;;;;15.43;11.98;;;;;;;4.28;43.34;96413.53;5116157;27;20047;-66
2022/03/09 09:08:22;;;;;;;15.73;11.23;;;;;;;4.23;43.73;96419.66;5116207;28;20020;-65
2022/03/09 09:10:48;;;;;;;16.38;11.45;;;;;;;4.10;44.39;96408.63;5116139;28;20382;-64
2022/03/09 09:13:14;;;;;;;17.10;12.35;;;;;;;4.22;43.68;96418.81;5116058;28;20038;-65
2022/03/09 09:15:43;;;;;;;16.38;11.50;;;;;;;4.50;43.82;96410.63;5114750;28;20015;-65
2022/03/09 09:18:18;;;;;;;15.55;12.13;;;;;;;4.39;44.92;96413.38;5115837;28;20027;-64
2022/03/09 09:20:43;;;;;;;17.25;12.63;;;;;;;4.59;43.84;96408.75;5115573;27;20055;-64
2022/03/09 09:23:09;;;;;;;16.40;11.60;;;;;;;4.88;44.20;96407.41;5115728;28;20023;-65
2022/03/09 09:25:35;;;;;;;17.83;12.45;;;;;;;4.75;43.15;96412.81;5115530;28;20016;-65
2022/03/09 09:28:00;;;;;;;15.32;11.55;;;;;;;4.77;43.71;96416.22;5115501;28;20373;-67
2022/03/09 09:30:27;;;;;;;16.75;12.20;;;;;;;4.68;44.50;96413.78;5115745;28;20047;-65
2022/03/09 09:32:52;;;;;;;16.15;11.25;;;;;;;4.64;44.39;96418.16;5115599;28;20112;-67
2022/03/09 09:35:18;;;;;;;15.25;11.88;;;;;;;4.37;44.81;96422.06;5115722;28;20137;-64
2022/03/09 09:37:45;;;;;;;13.45;11.00;;;;;;;3.90;45.41;96420.97;5115589;28;20040;-67
2022/03/09 09:40:13;;;;;;;14.93;11.10;;;;;;;4.17;44.41;96416.28;5115497;28;20024;-66
2022/03/09 09:42:39;;;;;;;15.05;10.55;;;;;;;4.39;46.31;96417.69;5115315;28;20480;-64
2022/03/09 09:45:05;;;;;;;15.07;10.52;;;;;;;4.35;45.21;96410.84;5115456;28;20062;-65
2022/03/09 09:47:32;;;;;;;14.52;10.93;;;;;;;4.26;44.27;96411.84;5115447;28;20027;-66
2022/03/09 09:49:58;;;;;;;15.85;11.52;;;;;;;3.92;44.36;96414.03;5115340;28;20616;-64
2022/03/09 09:52:29;;;;;;;13.45;10.52;;;;;;;3.72;45.44;96413.44;5115195;28;20051;-66
2022/03/09 09:54:59;;;;;;;14.88;10.90;;;;;;;3.46;45.43;96418.06;5115210;28;20019;-65
2022/03/09 09:57:27;;;;;;;13.18;10.45;;;;;;;3.22;46.01;96421.78;5115211;28;20027;-65
2022/03/09 09:59:52;;;;;;;15.30;10.75;;;;;;;3.09;46.41;96416.72;5115109;28;20055;-66
2022/03/09 10:02:18;;;;;;;13.45;10.82;;;;;;;2.96;46.85;96417.72;5115138;28;20031;-65
2022/03/09 10:04:50;;;;;;;14.48;10.88;;;;;;;2.87;46.90;96423.84;5115212;28;20376;-65
2022/03/09 10:07:16;;;;;;;15.65;9.68;;;;;;;2.62;46.34;96431.81;5115139;27;20066;-66
2022/03/09 10:09:43;;;;;;;13.93;10.50;;;;;;;2.42;48.24;96422.50;5114882;28;20405;-66
2022/03/09 10:12:10;;;;;;;17.25;11.38;;;;;;;2.26;49.78;96414.84;5115039;28;20023;-65
2022/03/09 10:14:50;;;;;;;15.13;11.07;;;;;;;2.18;50.65;96418.34;5115016;28;20372;-66
2022/03/09 10:17:30;;;;;;;16.35;10.82;;;;;;;2.13;51.92;96428.69;5115041;28;20500;-64
2022/03/09 10:20:06;;;;;;;15.82;11.10;;;;;;;1.98;52.72;96419.31;5114579;27;20122;-66
2022/03/09 10:22:34;;;;;;;16.83;11.40;;;;;;;2.15;51.28;96419.22;5114648;28;20389;-64
2022/03/09 10:25:08;;;;;;;17.02;11.57;;;;;;;2.12;51.62;96417.53;5114579;28;20015;-64
2022/03/09 10:27:41;;;;;;;17.55;11.45;;;;;;;2.22;52.11;96418.31;5114659;28;20561;-65
2022/03/09 10:30:13;;;;;;;16.13;11.10;;;;;;;2.12;52.55;96422.69;5114682;28;20377;-66
2022/03/09 10:32:42;;;;;;;17.60;11.30;;;;;;;2.05;52.58;96418.44;5114515;28;20023;-65
2022/03/09 10:35:08;;;;;;;16.88;11.25;;;;;;;1.95;54.48;96427.94;5114575;28;20020;-64
2022/03/09 10:37:38;;;;;;;17.63;11.80;;;;;;;1.62;57.16;96428.09;5113784;28;20027;-67
2022/03/09 10:40:16;;;;;;;16.15;11.80;;;;;;;1.50;58.83;96423.84;5114258;28;20023;-65
2022/03/09 10:42:42;;;;;;;12.55;9.65;;;;;;;1.65;56.46;96432.38;5114251;28;20035;-65
2022/03/09 10:45:09;;;;;;;15.18;11.05;;;;;;;1.65;58.12;96429.81;5114280;28;20015;-66
2022/03/09 10:47:48;;;;;;;13.95;10.27;;;;;;;1.77;58.89;96423.72;5114287;28;20024;-64
2022/03/09 10:50:19;;;;;;;14.55;10.13;;;;;;;1.87;54.46;96424.56;5114358;28;20538;-64
2022/03/09 10:52:59;;;;;;;14.15;10.25;;;;;;;2.00;54.04;96431.38;5114185;28;20019;-64
2022/03/09 10:55:32;;;;;;;10.60;7.28;;;;;;;2.07;53.87;96416.69;5114058;28;20481;-64
2022/03/09 10:58:07;;;;;;;19.60;10.73;;;;;;;2.11;52.30;96417.53;5114081;28;20024;-64
2022/03/09 11:00:43;;;;;;;15.73;10.25;;;;;;;1.97;52.44;96418.47;5114108;28;20019;-64
2022/03/09 11:03:11;;;;;;;13.32;10.00;;;;;;;2.07;52.62;96414.09;5113886;28;20039;-65
2022/03/09 11:05:47;;;;;;;14.93;9.55;;;;;;;2.07;49.12;96413.25;5114237;28;20374;-66
2022/03/09 11:08:14;;;;;;;15.05;9.63;;;;;;;2.02;50.55;96403.81;5114088;28;20034;-64
2022/03/09 11:10:40;;;;;;;13.73;9.82;;;;;;;2.10;50.17;96406.34;5113795;28;20145;-64
2022/03/09 11:13:05;;;;;;;11.40;7.43;;;;;;;2.06;48.85;96399.50;5113816;28;20807;-64
2022/03/09 11:15:32;;;;;;;12.73;9.57;;;;;;;2.08;49.14;96404.66;5113874;28;20020;-65
2022/03/09 11:17:58;;;;;;;12.57;7.32;;;;;;;2.04;47.57;96400.38;5113758;28;20028;-66
2022/03/09 11:20:24;;;;;;;9.68;6.63;;;;;;;2.04;46.97;96403.81;5113450;28;20413;-64